KANE

Anoka County-Blaine (Janes Field) Airport

Minneapolis, Minnesota, USA
METAR KANE 230254Z 16008KT 10SM SCT250 16/08 A3005
Observed Flight Rules
Sep-23 @ 02:54 UTC (4 hours ago) Visual Flight Rules
Wind Visibility Clouds
160° at 8 knots 10 miles
Temperatures Readings
Current 16°C / 61°F
Dewpoint 8°C / 46°F
Humidity 59%
Altimeter 30.05" Hg
Pressure 1018 hPa
Elevation 278
METAR KANE 230254Z 16008KT 10SM SCT250 16/08 A3005
Observed Flight Rules
Sep-23 @ 02:54 UTC
(4 hours ago)
VFR
Wind Visibility
160° at 8 knots 10 miles
Clouds
Temperature Dewpoint
16°C / 61°F 8°C / 46°F
Humidity Altimeter Pressure
59% 30.05" Hg 1018 hPa